Latest Weather Observations for Adele Island

IDW60801

Issued at 8:02 pm WST Thursday 2 July 2015 (issued every 30 minutes, with the page automatically refreshed every 10 minutes)

About weather observations | Map of weather stations | Latest weather observations for WA | Other Formats
Station Details ID: 200735 Name: ADELE ISLAND Lat: -15.51 Lon: 123.16 Height: 4.6 m
Data from the previous 72 hours. | See also: Recent months for locations in Western Australia
Date/Time
WST
Temp
°C
App
Temp
°C
Dew
Point
Rel
Hum
%
Delta-T
°C
Wind Press
QNH
hPa
Press
MSL
hPa
Rain
since 9 am
mm
Dir
 
Spd
km/h
Gust
km/h
Spd
kts
Gust
kts
02/08:00pm 26.2 - - - - S 9 11 5 6 1017.2 1017.1 -
02/07:30pm 26.3 - - - - SSE 9 11 5 6 1017.1 1017.0 -
02/07:00pm 26.2 - - - - S 11 13 6 7 1016.8 1016.7 -
02/06:30pm 26.3 - - - - S 11 13 6 7 1016.4 1016.3 -
02/06:00pm 26.5 - - - - SSE 9 9 5 5 1016.1 1016.0 -
02/05:30pm 26.6 - - - - SSE 7 9 4 5 1016.0 1015.9 -
02/05:00pm 26.8 - - - - SSE 9 11 5 6 1015.7 1015.6 -
02/04:30pm 27.5 - - - - SE 9 11 5 6 1015.5 1015.4 -
02/04:00pm 28.0 - - - - SE 9 13 5 7 1015.5 1015.4 -
02/03:30pm 28.2 - - - - ENE 11 13 6 7 1015.4 1015.3 -
02/03:00pm 28.1 - - - - NE 13 17 7 9 1015.4 1015.3 -
02/02:30pm 27.9 - - - - NE 15 19 8 10 1015.6 1015.5 -
02/02:00pm 28.6 - - - - NE 15 17 8 9 1015.9 1015.8 -
02/01:30pm 28.4 - - - - NE 15 19 8 10 1016.2 1016.1 -
02/01:00pm 28.2 - - - - ENE 15 19 8 10 1016.5 1016.4 -
02/12:30pm 28.3 - - - - ENE 22 32 12 17 1017.0 1016.9 -
02/12:00pm 28.4 - - - - ENE 17 24 9 13 1017.3 1017.2 -
02/11:30am 28.0 - - - - ENE 17 22 9 12 1017.8 1017.7 -
02/11:00am 28.2 - - - - ENE 15 19 8 10 1018.1 1018.0 -
02/10:30am 28.3 - - - - ENE 13 15 7 8 1018.3 1018.2 -
02/10:00am 28.3 - - - - ENE 13 17 7 9 1018.5 1018.4 -
02/09:30am 27.7 - - - - ENE 13 17 7 9 1018.6 1018.5 -
02/09:00am 27.8 - - - - ESE 13 17 7 9 1018.7 1018.6 -
02/08:30am 26.9 - - - - E 9 11 5 6 1018.7 1018.6 -
02/08:00am 26.6 - - - - NE 7 9 4 5 1018.6 1018.5 -
02/07:30am 25.8 - - - - SSE 7 9 4 5 1018.4 1018.3 -
02/07:00am 25.5 - - - - SSE 9 9 5 5 1018.2 1018.1 -
02/06:30am 25.3 - - - - ESE 7 9 4 5 1018.1 1018.0 -
02/06:00am 25.5 - - - - SSE 11 13 6 7 1017.9 1017.8 -
02/05:30am 25.7 - - - - SSE 9 11 5 6 1017.6 1017.5 -
02/05:00am 25.1 - - - - SSW 9 15 5 8 1017.6 1017.5 -
02/04:30am 24.7 - - - - S 7 13 4 7 1017.7 1017.6 -
02/04:00am 26.4 - - - - SW 7 15 4 8 1017.4 1017.3 -
02/03:30am 25.5 - - - - W 7 15 4 8 1017.2 1017.1 -
02/03:00am 25.7 - - - - S 20 24 11 13 1017.0 1016.9 -
02/02:30am 25.7 - - - - S 24 30 13 16 1017.1 1017.0 -
02/02:00am 25.4 - - - - SSE 20 24 11 13 1017.3 1017.2 -
02/01:30am 25.1 - - - - SSE 20 22 11 12 1017.4 1017.3 -
02/01:00am 25.9 - - - - SSE 20 20 11 11 1017.8 1017.7 -
02/12:30am 26.1 - - - - SSE 19 20 10 11 1017.9 1017.8 -
02/12:00am 26.3 - - - - SSE 19 22 10 12 1018.0 1017.9 -
 
Date/Time
WST
Temp
°C
App
Temp
°C
Dew
Point
Rel
Hum
%
Delta-T
°C
Wind Press
QNH
hPa
Press
MSL
hPa
Rain
since 9 am
mm
Dir
 
Spd
km/h
Gust
km/h
Spd
kts
Gust
kts
01/11:30pm 25.7 - - - - SSE 19 20 10 11 1018.1 1018.0 -
01/11:00pm 25.3 - - - - SSE 19 20 10 11 1018.2 1018.1 -
01/10:30pm 25.9 - - - - SSE 17 19 9 10 1018.2 1018.1 -
01/10:00pm 25.6 - - - - S 17 19 9 10 1018.4 1018.3 -
01/09:30pm 24.8 - - - - S 19 20 10 11 1018.5 1018.4 -
01/09:00pm 26.2 - - - - S 17 19 9 10 1018.4 1018.3 -
01/08:30pm 26.5 - - - - SSW 13 15 7 8 1018.2 1018.1 -
01/08:00pm 26.2 - - - - SSE 13 15 7 8 1018.1 1018.0 -
01/07:30pm 26.3 - - - - S 11 13 6 7 1017.9 1017.8 -
01/07:00pm 26.4 - - - - S 13 13 7 7 1017.5 1017.4 -
01/06:30pm 25.0 - - - - SSE 15 17 8 9 1017.1 1017.0 -
01/06:00pm 25.7 - - - - SSE 13 15 7 8 1016.8 1016.7 -
01/05:30pm 26.1 - - - - SSE 11 13 6 7 1016.6 1016.5 -
01/05:00pm 26.3 - - - - SSE 11 13 6 7 1016.3 1016.2 -
01/04:30pm 26.7 - - - - SE 11 13 6 7 1016.2 1016.1 -
01/04:00pm 26.7 - - - - SE 13 15 7 8 1016.2 1016.1 -
01/03:30pm 27.1 - - - - ESE 15 20 8 11 1016.1 1016.0 -
01/03:00pm 27.0 - - - - SE 17 20 9 11 1016.2 1016.1 -
01/02:30pm 27.5 - - - - E 15 24 8 13 1016.2 1016.1 -
01/02:00pm 28.0 - - - - SE 11 15 6 8 1016.2 1016.1 -
01/01:30pm 28.0 - - - - ENE 9 13 5 7 1016.4 1016.3 -
01/01:00pm 28.2 - - - - NNE 11 13 6 7 1016.8 1016.7 -
01/12:30pm 28.2 - - - - NNE 11 13 6 7 1017.2 1017.1 -
01/12:00pm 28.3 - - - - NNE 11 13 6 7 1017.6 1017.5 -
01/11:30am 28.0 - - - - NNE 11 15 6 8 1018.1 1018.0 -
01/11:00am 28.1 - - - - NNE 13 15 7 8 1018.7 1018.6 -
01/10:30am 27.9 - - - - NNE 13 17 7 9 1019.0 1018.9 -
01/10:00am 28.0 - - - - NE 15 19 8 10 1019.2 1019.1 -
01/09:30am 27.6 - - - - NE 17 20 9 11 1019.4 1019.3 -
01/09:00am 27.5 - - - - NE 15 20 8 11 1019.4 1019.3 -
01/08:30am 27.0 - - - - ENE 17 20 9 11 1019.4 1019.3 -
01/08:00am 26.3 - - - - ENE 15 20 8 11 1019.2 1019.1 -
01/07:30am 25.8 - - - - E 15 17 8 9 1018.8 1018.7 -
01/07:00am 25.7 - - - - E 17 20 9 11 1018.5 1018.4 -
01/06:30am 25.5 - - - - E 19 20 10 11 1018.3 1018.2 -
01/06:00am 24.7 - - - - ESE 17 19 9 10 1018.0 1017.9 -
01/05:30am 25.6 - - - - ESE 20 24 11 13 1017.7 1017.6 -
01/05:00am 25.6 - - - - ESE 20 26 11 14 1017.7 1017.6 -
01/04:30am 23.8 - - - - SSE 19 22 10 12 1017.4 1017.3 -
01/04:00am 24.6 - - - - SSE 19 24 10 13 1017.5 1017.4 -
01/03:30am 24.2 - - - - SSE 13 15 7 8 1017.5 1017.4 -
01/03:00am 24.2 - - - - S 15 17 8 9 1017.4 1017.3 -
01/02:30am 24.7 - - - - SSE 13 15 7 8 1017.6 1017.5 -
01/02:00am 25.1 - - - - S 17 20 9 11 1017.9 1017.8 -
01/01:30am 26.1 - - - - S 17 19 9 10 1017.8 1017.7 -
01/01:00am 25.6 - - - - S 13 15 7 8 1017.9 1017.8 -
01/12:30am 26.0 - - - - S 15 17 8 9 1018.1 1018.0 -
01/12:00am 25.4 - - - - S 13 15 7 8 1018.1 1018.0 -
 
Date/Time
WST
Temp
°C
App
Temp
°C
Dew
Point
Rel
Hum
%
Delta-T
°C
Wind Press
QNH
hPa
Press
MSL
hPa
Rain
since 9 am
mm
Dir
 
Spd
km/h
Gust
km/h
Spd
kts
Gust
kts
30/11:30pm 24.3 - - - - S 15 19 8 10 1018.2 1018.1 -
30/11:00pm 24.5 - - - - SSE 15 17 8 9 1018.2 1018.1 -
30/10:30pm 24.5 - - - - SSE 17 19 9 10 1018.3 1018.2 -
30/10:00pm 25.2 - - - - S 15 19 8 10 1018.4 1018.3 -
30/09:30pm 26.0 - - - - S 13 13 7 7 1018.3 1018.2 -
30/09:00pm 25.9 - - - - S 15 17 8 9 1018.3 1018.2 -
30/08:30pm 25.3 - - - - SSE 15 15 8 8 1018.2 1018.1 -
30/08:00pm 25.7 - - - - SSE 13 13 7 7 1018.1 1018.0 -
30/07:30pm 25.6 - - - - SSE 11 13 6 7 1017.8 1017.7 -
30/07:00pm 25.0 - - - - SSE 11 13 6 7 1017.5 1017.4 -
30/06:30pm 25.0 - - - - SSE 11 13 6 7 1017.1 1017.0 -
30/06:00pm 25.0 - - - - SSE 11 13 6 7 1016.8 1016.7 -
30/05:30pm 25.0 - - - - SSE 11 13 6 7 1016.6 1016.5 -
30/05:00pm 26.0 - - - - SSE 11 13 6 7 1016.4 1016.3 -
30/04:30pm 26.8 - - - - SSE 13 17 7 9 1016.1 1016.0 -
30/04:00pm 27.2 - - - - SE 13 17 7 9 1015.9 1015.8 -
30/03:30pm 27.4 - - - - SE 13 17 7 9 1015.8 1015.7 -
30/03:00pm 27.3 - - - - ESE 11 15 6 8 1015.9 1015.8 -
30/02:30pm 27.5 - - - - SE 9 11 5 6 1015.9 1015.8 -
30/02:00pm 28.2 - - - - E 7 13 4 7 1016.1 1016.0 -
30/01:30pm 28.1 - - - - ESE 7 13 4 7 1016.4 1016.3 -
30/01:00pm 27.5 - - - - NNE 7 11 4 6 1016.9 1016.8 -
30/12:30pm 28.7 - - - - N 7 9 4 5 1017.2 1017.1 -
30/12:00pm 27.8 - - - - NNE 9 11 5 6 1017.5 1017.4 -
30/11:30am 27.9 - - - - N 9 13 5 7 1018.0 1017.9 -
30/11:00am 28.0 - - - - N 11 13 6 7 1018.5 1018.4 -
30/10:30am 27.7 - - - - NNE 11 15 6 8 1018.7 1018.6 -
30/10:00am 27.5 - - - - NNE 13 17 7 9 1018.9 1018.8 -
30/09:30am 27.5 - - - - NNE 13 15 7 8 1018.9 1018.8 -
30/09:00am 27.2 - - - - NE 15 17 8 9 1018.8 1018.7 -
30/08:30am 26.8 - - - - NE 17 20 9 11 1018.7 1018.6 -
30/08:00am 26.4 - - - - ENE 17 20 9 11 1018.4 1018.3 -
30/07:30am 26.2 - - - - ENE 15 20 8 11 1018.2 1018.1 -
30/07:00am 25.7 - - - - E 19 22 10 12 1017.8 1017.7 -
30/06:30am 24.9 - - - - ESE 15 17 8 9 1017.4 1017.3 -
30/06:00am 23.7 - - - - ESE 15 17 8 9 1017.2 1017.1 -
30/05:30am 23.3 - - - - SE 15 17 8 9 1016.9 1016.8 -
30/05:00am 22.8 - - - - SSE 17 20 9 11 1016.5 1016.4 -
30/04:30am 22.9 - - - - SSE 19 20 10 11 1016.5 1016.4 -
30/04:00am 23.4 - - - - SSE 17 19 9 10 1016.5 1016.4 -
30/03:30am 22.8 - - - - - - - - - 1016.6 1016.5 -
30/03:00am 23.0 - - - - S 17 19 9 10 1016.7 1016.6 -
30/02:30am 23.2 - - - - SSE 19 20 10 11 1016.9 1016.8 -
30/02:00am 24.1 - - - - S 17 20 9 11 1017.1 1017.0 -
30/01:30am 25.1 - - - - S 17 19 9 10 1017.3 1017.2 -
30/01:00am 25.3 - - - - S 11 13 6 7 1017.5 1017.4 -
30/12:30am 25.4 - - - - SSE 9 9 5 5 1017.6 1017.5 -
30/12:00am 25.3 - - - - SSE 9 11 5 6 1017.7 1017.6 -
 
Date/Time
WST
Temp
°C
App
Temp
°C
Dew
Point
Rel
Hum
%
Delta-T
°C
Wind Press
QNH
hPa
Press
MSL
hPa
Rain
since 9 am
mm
Dir
 
Spd
km/h
Gust
km/h
Spd
kts
Gust
kts
29/11:30pm 25.4 - - - - S 9 11 5 6 1017.7 1017.6 -
29/11:00pm 25.4 - - - - S 7 9 4 5 1017.8 1017.7 -
29/10:30pm 25.5 - - - - S 9 11 5 6 1017.8 1017.7 -
29/10:00pm 25.6 - - - - SSW 11 13 6 7 1018.0 1017.9 -
29/09:30pm 25.9 - - - - ESE 9 11 5 6 1018.0 1017.9 -
29/09:00pm 25.6 - - - - E 9 11 5 6 1018.1 1018.0 -
29/08:30pm 25.1 - - - - NNE 7 11 4 6 1018.0 1017.9 -

Other Formats:

Comma delimited format used in spreadsheet applications
http://www.bom.gov.au/fwo/IDW60801/IDW60801.94210.axf

JavaScript Object Notation format (JSON) in row-major order
http://www.bom.gov.au/fwo/IDW60801/IDW60801.94210.json